Etusivu
METAR-TAF:

METAR-TAF

Lentoasemat :

Ranger Station

Stanley, Idaho, Yhdysvallat

Leveyspiiri: 44-12-31N, Pituuspiiri: 114-56-04W, korkeus merenpinnasta: 1980 m

Tämänhetkinen sää

Tämä raportti tehtiin 24 minuuttia sitten, kello 14.51 UTC
Tuuli 3 kn eri suunnista
Lämpötila 10°C
Kosteus 87%
Ilmanpaine 1008 hPa

METAR: KSNT 061451Z AUTO VRB03KT 10/08 A2977 RMK AO1 SLP985 P0004 60004 T01000083 58003

Aika: 09:15 (15:15 UTC)


TAF: puuttuu

Säähavainnot ja -ennusteet yli 4000 lentoasemalta (METAR- ja TAF-raportit).

Käytössä olevat sääasemat on merkitty karttaan keltaisilla ja punaisilla pisteillä.

Aseta hiiri pisteen päälle nähdäksesi sääaseman nimen.

Klikkaa sitten nähdäksesi säähavainnot ja -ennusteet.

Kartan vaihtaminen: klikkaa mustalla rastilla varustettuja vihreitä pisteitä, niin voit zoomata sisään; viivalla varustettua vihreää pistettä, niin voit zoomata ulos tai vihreitä nuolia, niin pääset viereisille kartoille.


METAR-TAF: